Time;durP1;ratioP1;P1;durP2;ratioP2;P2;SDS_P1;SDS_P2;PMS_P1;PMS_P2;Temp;Humidity;BMP_temperature;BMP_pressure;BME280_temperature;BME280_humidity;BME280_pressure;Samples;Min_cycle;Max_cycle;Signal;HPM_P1;HPM_P2
2022/06/06 00:01:23;;;;;;;7.50;5.10;;;;;;;11.49;66.97;99977.25;213474;1277;140635;-63
2022/06/06 00:06:27;;;;;;;5.50;4.90;;;;;;;11.48;66.81;99973.70;213727;1277;139457;-64
2022/06/06 00:11:34;;;;;;;6.70;5.10;;;;;;;11.30;66.46;99978.05;213967;1274;139499;-64
2022/06/06 00:16:37;;;;;;;6.80;5.30;;;;;;;11.17;66.78;99974.35;215239;1274;140604;-65
2022/06/06 00:21:44;;;;;;;10.20;4.90;;;;;;;11.11;66.69;99972.67;213657;1274;141456;-63
2022/06/06 00:26:47;;;;;;;7.30;4.80;;;;;;;11.00;66.87;99968.95;215767;1274;140317;-64
2022/06/06 00:37:14;;;;;;;7.00;5.50;;;;;;;10.98;67.28;99978.89;215264;1276;140782;-65
2022/06/06 00:42:28;;;;;;;9.60;5.60;;;;;;;10.99;67.20;99989.27;215396;1274;141879;-64
2022/06/06 00:47:40;;;;;;;5.80;5.20;;;;;;;10.85;67.06;99986.89;214705;1274;142687;-63
2022/06/06 00:52:47;;;;;;;9.20;6.80;;;;;;;10.65;67.41;99985.23;213671;1274;140657;-63
2022/06/06 00:57:57;;;;;;;8.10;5.80;;;;;;;10.55;67.94;99978.47;214893;1277;141230;-62
2022/06/06 01:03:04;;;;;;;8.50;4.70;;;;;;;10.58;68.38;99957.48;213706;1276;140842;-63
2022/06/06 01:08:09;;;;;;;5.60;4.70;;;;;;;10.68;68.41;99943.40;214605;1277;142083;-61
2022/06/06 01:13:16;;;;;;;5.80;4.60;;;;;;;10.62;68.27;99937.98;213054;1276;140349;-62
2022/06/06 01:18:35;;;;;;;7.00;5.30;;;;;;;10.62;68.48;99943.98;213136;1276;140154;-62
2022/06/06 01:24:02;;;;;;;8.20;5.20;;;;;;;10.67;68.76;99941.25;213339;1276;140719;-62
2022/06/06 01:29:29;;;;;;;7.00;5.90;;;;;;;10.73;69.15;99929.75;214064;1276;139924;-64
2022/06/06 01:34:38;;;;;;;6.50;5.20;;;;;;;10.77;69.01;99936.83;213066;1276;142741;-63
2022/06/06 01:39:40;;;;;;;;;;;;;;;10.75;68.83;99933.86;213607;1276;139256;-63
2022/06/06 01:45:00;;;;;;;6.50;5.90;;;;;;;10.61;68.86;99938.34;214947;1276;125582;-64
2022/06/06 01:50:05;;;;;;;5.90;5.40;;;;;;;10.61;69.06;99934.32;215287;1275;141222;-64
2022/06/06 01:55:09;;;;;;;7.20;6.30;;;;;;;10.57;68.80;99935.17;213990;1276;140117;-62
2022/06/06 02:00:14;;;;;;;8.10;5.50;;;;;;;10.52;69.01;99944.88;215331;1276;139777;-64
2022/06/06 02:05:16;;;;;;;11.10;7.40;;;;;;;10.41;68.89;99940.49;215258;1275;140925;-64
2022/06/06 02:10:20;;;;;;;6.60;5.80;;;;;;;10.35;69.22;99937.32;215051;1274;142042;-64
2022/06/06 02:15:24;;;;;;;6.30;5.70;;;;;;;10.30;69.20;99933.08;213549;1274;141952;-62
2022/06/06 02:20:29;;;;;;;8.30;5.80;;;;;;;10.27;69.52;99928.33;215467;1272;141964;-64
2022/06/06 02:25:33;;;;;;;5.60;5.10;;;;;;;10.41;70.02;99928.83;216364;1274;141095;-64
2022/06/06 02:30:37;;;;;;;6.10;4.70;;;;;;;10.53;69.97;99929.86;214419;1274;140354;-64
2022/06/06 02:35:41;;;;;;;6.70;5.60;;;;;;;10.61;70.06;99935.66;214135;1274;141194;-63
2022/06/06 02:40:44;;;;;;;7.60;6.50;;;;;;;10.72;70.28;99934.16;214830;1274;141345;-63
2022/06/06 02:45:50;;;;;;;11.70;8.40;;;;;;;10.85;70.33;99928.11;214170;1274;140820;-63
2022/06/06 02:50:55;;;;;;;7.10;6.30;;;;;;;11.02;70.76;99929.79;213811;1274;140805;-63
2022/06/06 02:55:58;;;;;;;8.40;7.40;;;;;;;11.16;70.64;99929.66;213992;1274;142007;-63
2022/06/06 03:01:08;;;;;;;14.50;8.30;;;;;;;11.30;70.60;99932.33;213575;1274;140519;-63
2022/06/06 03:06:16;;;;;;;8.30;7.50;;;;;;;11.46;70.68;99929.29;214469;1274;140564;-63
2022/06/06 03:11:29;;;;;;;8.60;7.80;;;;;;;11.67;70.90;99929.98;214124;1274;140143;-63
2022/06/06 03:22:27;;;;;;;12.30;9.10;;;;;;;12.27;70.91;99928.13;213257;1274;207819;-62
2022/06/06 03:27:40;;;;;;;10.60;8.60;;;;;;;12.52;70.77;99925.89;213710;1274;140430;-63
2022/06/06 03:32:58;;;;;;;10.80;9.70;;;;;;;12.76;70.91;99924.55;213241;1274;141229;-63
2022/06/06 03:38:13;;;;;;;11.90;10.80;;;;;;;13.02;70.68;99927.88;214516;1274;139395;-63
2022/06/06 03:43:22;;;;;;;11.30;10.10;;;;;;;13.30;70.68;99928.02;213271;1274;141129;-64
2022/06/06 03:48:31;;;;;;;9.70;8.20;;;;;;;13.58;70.35;99924.15;214801;1274;140805;-66
2022/06/06 03:53:49;;;;;;;11.40;10.20;;;;;;;13.81;70.23;99929.30;214959;1274;140119;-63
2022/06/06 03:58:53;;;;;;;9.20;8.40;;;;;;;14.05;70.03;99941.46;214657;1274;140212;-61
2022/06/06 04:03:58;;;;;;;10.00;8.90;;;;;;;14.29;69.48;99950.49;214826;1274;139318;-63
2022/06/06 04:09:02;;;;;;;8.40;7.70;;;;;;;14.50;69.07;99941.38;214494;1274;140639;-61
2022/06/06 04:14:21;;;;;;;8.80;8.00;;;;;;;14.66;68.69;99931.97;216108;1274;142431;-62
2022/06/06 04:19:44;;;;;;;7.60;6.80;;;;;;;14.94;68.45;99925.30;215728;1276;139465;-62
2022/06/06 04:25:11;;;;;;;8.10;7.00;;;;;;;15.38;67.63;99924.05;215409;1276;139747;-63
2022/06/06 04:30:27;;;;;;;9.50;8.70;;;;;;;16.00;67.03;99927.77;215262;1274;141687;-64
2022/06/06 04:35:47;;;;;;;7.80;7.10;;;;;;;16.91;66.42;99948.00;215096;1274;140998;-61
2022/06/06 04:41:14;;;;;;;10.00;8.70;;;;;;;18.47;63.85;99941.95;214255;1274;141600;-62
2022/06/06 04:46:35;;;;;;;8.70;7.70;;;;;;;20.02;62.09;99950.18;214234;1274;140972;-63
2022/06/06 04:51:42;;;;;;;9.60;8.70;;;;;;;21.10;60.36;99954.29;214908;1274;139771;-63
2022/06/06 04:56:51;;;;;;;11.00;10.00;;;;;;;20.99;58.61;99948.09;214236;1274;140226;-63
2022/06/06 05:01:58;;;;;;;9.30;8.50;;;;;;;21.27;57.60;99944.06;213800;1274;139405;-64
2022/06/06 05:07:18;;;;;;;10.20;7.80;;;;;;;23.12;54.94;99940.78;213896;1275;140383;-64
2022/06/06 05:12:48;;;;;;;9.40;8.20;;;;;;;26.55;51.08;99950.91;215143;1274;139601;-62
2022/06/06 05:17:56;;;;;;;6.60;6.10;;;;;;;29.71;47.09;99939.86;213288;1275;139909;-61
2022/06/06 05:23:17;;;;;;;9.80;6.40;;;;;;;31.92;43.26;99942.54;214110;1274;139212;-62
2022/06/06 05:28:45;;;;;;;5.40;4.90;;;;;;;34.27;41.81;99947.73;214108;1274;140163;-64
2022/06/06 05:34:01;;;;;;;6.30;3.80;;;;;;;35.10;36.95;99947.46;214337;1276;139435;-64
2022/06/06 05:39:16;;;;;;;4.30;3.90;;;;;;;35.03;35.44;99942.31;213946;1276;139348;-64
2022/06/06 05:44:57;;;;;;;3.60;3.30;;;;;;;34.65;33.85;99937.38;214283;1274;139897;-65
2022/06/06 05:50:12;;;;;;;8.30;3.90;;;;;;;33.31;33.18;99934.84;214220;1276;139468;-66
2022/06/06 05:55:34;;;;;;;5.10;3.30;;;;;;;32.94;32.91;99932.14;213997;1276;139939;-64
2022/06/06 06:00:56;;;;;;;4.00;3.60;;;;;;;33.26;33.48;99932.27;213670;1274;219822;-64
2022/06/06 06:06:21;;;;;;;3.50;3.30;;;;;;;33.43;32.90;99923.19;214068;1274;139804;-64
2022/06/06 06:11:44;;;;;;;3.40;3.20;;;;;;;33.69;32.48;99916.01;214775;1272;139763;-64
2022/06/06 06:16:52;;;;;;;4.30;3.50;;;;;;;33.10;31.82;99918.06;214478;1275;139489;-63
2022/06/06 06:21:57;;;;;;;3.80;3.60;;;;;;;32.10;31.82;99917.89;214693;1274;140002;-63
2022/06/06 06:27:03;;;;;;;4.60;4.20;;;;;;;30.49;32.50;99911.80;215434;1275;140244;-63
2022/06/06 06:32:30;;;;;;;5.30;4.20;;;;;;;29.78;33.48;99912.38;214852;1274;139772;-65
2022/06/06 06:37:59;;;;;;;4.50;3.10;;;;;;;30.28;34.90;99919.65;213845;1276;140575;-64
2022/06/06 06:43:08;;;;;;;6.40;4.30;;;;;;;29.57;33.99;99925.98;214030;1274;141041;-62
2022/06/06 06:48:17;;;;;;;5.10;4.70;;;;;;;28.31;34.57;99914.79;214673;1274;140121;-62
2022/06/06 06:53:39;;;;;;;4.60;4.30;;;;;;;27.75;35.91;99915.13;214350;1274;139312;-61
2022/06/06 06:58:54;;;;;;;5.70;5.10;;;;;;;28.82;35.96;99917.70;213586;1274;139563;-63
2022/06/06 07:10:06;;;;;;;4.70;4.30;;;;;;;30.88;35.10;99917.34;213145;1276;139529;-63
2022/06/06 07:15:33;;;;;;;4.30;4.00;;;;;;;31.67;33.76;99915.84;213542;1274;138956;-64
2022/06/06 07:20:41;;;;;;;3.90;3.60;;;;;;;32.32;33.73;99909.95;213637;1276;139568;-63
2022/06/06 07:25:47;;;;;;;5.10;3.90;;;;;;;31.65;32.96;99904.05;214569;1274;140003;-64
2022/06/06 07:31:03;;;;;;;4.60;4.10;;;;;;;30.82;33.73;99906.32;214712;1274;140887;-63
2022/06/06 07:36:17;;;;;;;6.10;3.80;;;;;;;30.44;35.25;99901.12;213753;1276;139225;-63
2022/06/06 07:41:42;;;;;;;4.30;4.00;;;;;;;30.38;35.06;99896.22;213820;1274;140022;-64
2022/06/06 07:46:56;;;;;;;3.70;3.50;;;;;;;29.98;35.49;99891.60;215217;1274;161081;-64
2022/06/06 07:52:04;;;;;;;4.50;4.30;;;;;;;29.81;35.39;99885.98;214587;1274;139015;-63
2022/06/06 07:57:33;;;;;;;8.10;4.70;;;;;;;29.54;35.55;99871.81;213553;1274;140459;-62
2022/06/06 08:02:54;;;;;;;4.40;4.10;;;;;;;29.41;35.82;99868.67;215236;1274;139247;-63
2022/06/06 08:08:14;;;;;;;4.10;3.80;;;;;;;29.24;36.18;99862.47;215465;1274;141103;-63
2022/06/06 08:13:25;;;;;;;3.80;3.60;;;;;;;28.89;35.47;99859.62;215601;1274;140271;-63
2022/06/06 08:19:07;;;;;;;3.80;3.60;;;;;;;28.40;35.56;99858.42;213540;1274;140461;-63
2022/06/06 08:24:22;;;;;;;5.30;4.20;;;;;;;28.19;36.22;99856.66;213774;1276;140887;-62
2022/06/06 08:29:47;;;;;;;;;;;;;;;28.15;36.83;99857.41;214179;1274;140614;-62
2022/06/06 08:34:50;;;;;;;3.70;3.40;;;;;;;28.33;36.86;99861.16;214244;1274;127316;-61
2022/06/06 08:40:21;;;;;;;4.40;4.10;;;;;;;28.33;36.37;99854.09;213074;1276;1427168;-63
2022/06/06 08:46:00;;;;;;;5.50;4.40;;;;;;;28.18;36.47;99847.61;213868;1276;141524;-62
2022/06/06 08:51:22;;;;;;;4.10;3.90;;;;;;;28.31;36.74;99839.23;214236;1276;140153;-65
2022/06/06 08:56:55;;;;;;;4.10;3.90;;;;;;;28.35;36.60;99837.86;214703;1276;139797;-62
2022/06/06 09:02:03;;;;;;;4.50;4.20;;;;;;;28.35;37.11;99833.95;213615;1275;141534;-62
2022/06/06 09:07:16;;;;;;;3.80;3.40;;;;;;;28.28;37.12;99832.55;213504;1275;140935;-63
2022/06/06 09:12:22;;;;;;;6.60;5.10;;;;;;;28.41;37.66;99829.48;213483;1273;140379;-61
2022/06/06 09:17:38;;;;;;;5.40;4.90;;;;;;;28.37;38.13;99819.83;213892;1274;140591;-64
2022/06/06 09:23:14;;;;;;;6.10;5.10;;;;;;;28.49;38.22;99818.54;213174;1274;140512;-63
2022/06/06 09:28:42;;;;;;;5.40;5.10;;;;;;;28.29;38.07;99805.83;213872;1274;140234;-62
2022/06/06 09:33:47;;;;;;;6.10;5.70;;;;;;;28.04;38.41;99805.59;212894;1274;140736;-62
2022/06/06 09:39:11;;;;;;;5.80;5.30;;;;;;;28.12;39.16;99798.35;212790;1276;141538;-63
2022/06/06 09:44:33;;;;;;;6.00;5.50;;;;;;;28.23;39.19;99799.05;215248;1276;140842;-62
2022/06/06 09:50:19;;;;;;;5.30;5.00;;;;;;;28.30;39.74;99797.00;214648;1275;139328;-62
2022/06/06 10:00:58;;;;;;;5.80;5.30;;;;;;;28.39;38.88;99798.81;213746;1274;143215;-64
2022/06/06 10:06:38;;;;;;;6.60;6.00;;;;;;;28.26;39.49;99794.21;216195;1274;140551;-64
2022/06/06 10:12:03;;;;;;;5.20;4.80;;;;;;;28.44;40.01;99791.96;216028;1274;141700;-66
2022/06/06 10:17:23;;;;;;;7.90;5.50;;;;;;;28.82;39.60;99793.63;215769;1274;141701;-65
2022/06/06 10:22:43;;;;;;;4.90;4.60;;;;;;;29.02;39.34;99787.98;214767;1274;140835;-66
2022/06/06 10:28:04;;;;;;;6.90;6.10;;;;;;;28.99;39.00;99789.63;214835;1276;141524;-63
2022/06/06 10:33:18;;;;;;;6.40;5.90;;;;;;;28.72;39.30;99789.99;213193;1276;139889;-63
2022/06/06 10:38:47;;;;;;;6.90;6.30;;;;;;;28.67;39.35;99785.18;213729;1274;140038;-62
2022/06/06 10:44:02;;;;;;;6.80;6.40;;;;;;;28.40;39.78;99781.27;214404;1274;139451;-61
2022/06/06 10:49:31;;;;;;;6.50;6.10;;;;;;;28.40;40.33;99779.31;214233;1274;140259;-63
2022/06/06 11:07:32;;;;;;;7.00;6.40;;;;;;;29.22;39.87;99776.05;208301;1297;141827;-63
2022/06/06 11:13:20;;;;;;;6.80;6.30;;;;;;;29.52;39.60;99771.09;209579;1293;139810;-62
2022/06/06 13:15:38;;;;;;;10.00;9.20;;;;;;;26.91;43.76;99701.27;209324;1293;139939;-63
2022/06/06 13:20:54;;;;;;;8.00;7.40;;;;;;;26.96;43.60;99694.21;209380;1293;140613;-64
2022/06/06 13:26:32;;;;;;;8.10;7.30;;;;;;;27.21;43.54;99694.52;209425;1293;150225;-64
2022/06/06 13:31:37;;;;;;;13.70;10.90;;;;;;;27.28;43.51;99692.67;209608;1293;140461;-63
2022/06/06 13:36:45;;;;;;;10.90;9.90;;;;;;;27.22;43.40;99691.03;209594;1293;139615;-63
2022/06/06 13:42:24;;;;;;;10.60;9.50;;;;;;;27.09;43.84;99687.99;209575;1293;141010;-65
2022/06/06 13:47:55;;;;;;;9.80;8.80;;;;;;;27.15;44.17;99684.59;209365;1293;140236;-64
2022/06/06 13:53:20;;;;;;;8.70;8.10;;;;;;;27.17;44.52;99686.81;209584;1293;139770;-63
2022/06/06 13:58:31;;;;;;;9.70;8.90;;;;;;;27.07;44.23;99685.27;211642;1293;140236;-64
2022/06/06 14:03:51;;;;;;;9.70;8.80;;;;;;;27.08;44.73;99680.22;211728;1293;140416;-64
2022/06/06 14:08:56;;;;;;;9.00;8.20;;;;;;;27.03;44.96;99676.63;211841;1293;139554;-67
2022/06/06 14:14:00;;;;;;;;;;;;;;;26.83;44.85;99674.84;211501;1293;139769;-67
2022/06/06 14:19:35;;;;;;;9.30;8.60;;;;;;;26.58;45.17;99670.67;212041;1293;126264;-66
2022/06/06 14:24:53;;;;;;;12.50;8.90;;;;;;;26.45;45.07;99669.97;209948;1293;140830;-64
2022/06/06 14:30:00;;;;;;;9.30;8.70;;;;;;;26.30;45.41;99671.88;209766;1296;139928;-64
2022/06/06 14:35:16;;;;;;;11.70;10.60;;;;;;;26.14;45.37;99673.70;209857;1295;140899;-64
2022/06/06 14:40:44;;;;;;;8.70;7.80;;;;;;;26.05;45.80;99674.70;209742;1293;141681;-63
2022/06/06 14:45:58;;;;;;;11.40;8.80;;;;;;;25.98;45.55;99675.50;209577;1293;163262;-65
2022/06/06 14:51:04;;;;;;;13.30;9.60;;;;;;;25.81;45.95;99678.10;209573;1293;140049;-66
2022/06/06 14:56:44;;;;;;;10.00;9.10;;;;;;;25.58;46.36;99674.71;209296;1293;140801;-65
2022/06/06 15:01:50;;;;;;;10.70;9.80;;;;;;;25.40;46.75;99678.98;209099;1295;141501;-66
2022/06/06 15:06:57;;;;;;;7.90;7.10;;;;;;;25.27;46.91;99690.88;209395;1293;141514;-65
2022/06/06 15:12:01;;;;;;;10.40;9.50;;;;;;;25.07;47.73;99697.15;209433;1293;143019;-65
2022/06/06 15:17:13;;;;;;;10.30;9.50;;;;;;;24.84;48.62;99698.73;209403;1293;141252;-65
2022/06/06 15:22:23;;;;;;;11.30;10.20;;;;;;;24.66;49.50;99700.36;209527;1293;142004;-64
2022/06/06 15:27:40;;;;;;;13.20;11.80;;;;;;;24.42;50.08;99704.61;209275;1293;140906;-65
2022/06/06 15:33:09;;;;;;;12.30;11.20;;;;;;;24.27;50.68;99702.89;209241;1293;141868;-65
2022/06/06 15:38:21;;;;;;;13.30;12.00;;;;;;;24.15;51.21;99701.08;209218;1294;140673;-64
2022/06/06 15:43:56;;;;;;;12.70;11.50;;;;;;;24.01;51.69;99698.84;209280;1293;142224;-64
2022/06/06 15:49:09;;;;;;;12.90;11.80;;;;;;;23.84;52.30;99702.23;211392;1295;140589;-65
2022/06/06 15:54:41;;;;;;;13.20;12.00;;;;;;;23.72;52.80;99703.90;211762;1293;140228;-65
2022/06/06 15:59:50;;;;;;;13.70;12.60;;;;;;;23.64;53.24;99698.77;211935;1293;139853;-65
2022/06/06 16:05:00;;;;;;;13.60;12.50;;;;;;;23.60;53.89;99701.27;211675;1293;141295;-65
2022/06/06 16:10:25;;;;;;;12.80;11.80;;;;;;;23.61;54.29;99704.80;211836;1293;139468;-64
2022/06/06 16:15:37;;;;;;;13.70;12.40;;;;;;;23.53;54.57;99704.77;211869;1293;141437;-65
2022/06/06 16:20:53;;;;;;;15.60;14.10;;;;;;;23.49;55.18;99706.14;210465;1293;140880;-64
2022/06/06 16:26:10;;;;;;;15.90;14.20;;;;;;;23.45;55.53;99710.77;209609;1293;139941;-65
2022/06/06 16:31:32;;;;;;;16.40;14.70;;;;;;;23.35;55.98;99710.00;209500;1296;207486;-65
2022/06/06 16:36:56;;;;;;;16.10;14.80;;;;;;;23.13;56.42;99712.59;209912;1293;140198;-64
2022/06/06 16:48:01;;;;;;;16.20;14.70;;;;;;;22.93;57.18;99711.14;209073;1294;140376;-64
2022/06/06 16:53:14;;;;;;;20.10;14.50;;;;;;;22.80;57.55;99720.47;209286;1294;140172;-65
2022/06/06 16:58:45;;;;;;;18.30;16.50;;;;;;;22.65;57.71;99718.04;209271;1296;139940;-64
2022/06/06 17:04:16;;;;;;;15.20;13.90;;;;;;;22.49;58.05;99726.05;209248;1293;142463;-65
2022/06/06 17:09:37;;;;;;;29.40;15.30;;;;;;;22.42;58.44;99725.98;209356;1296;140558;-66
2022/06/06 17:14:41;;;;;;;14.50;13.20;;;;;;;22.34;58.57;99734.35;209495;1296;139970;-66
2022/06/06 17:20:13;;;;;;;14.10;12.90;;;;;;;22.26;58.76;99732.19;209504;1294;140292;-66
2022/06/06 17:25:39;;;;;;;15.70;14.20;;;;;;;22.16;59.26;99731.93;209256;1297;139601;-65
2022/06/06 17:30:43;;;;;;;15.60;14.20;;;;;;;22.11;59.33;99733.52;209006;1296;139756;-65
2022/06/06 17:36:21;;;;;;;14.80;13.50;;;;;;;22.03;59.87;99743.73;209425;1296;140135;-66
2022/06/06 17:41:28;;;;;;;22.10;13.90;;;;;;;21.95;59.92;99749.02;209143;1296;139958;-64
2022/06/06 17:46:39;;;;;;;14.70;13.40;;;;;;;21.88;60.18;99741.70;209773;1295;140765;-65
2022/06/06 17:52:03;;;;;;;12.90;11.60;;;;;;;21.83;60.43;99746.16;211335;1296;140992;-64
2022/06/06 17:57:39;;;;;;;13.70;12.40;;;;;;;21.58;60.56;99751.36;211677;1294;140992;-65
2022/06/06 18:03:13;;;;;;;12.90;11.70;;;;;;;21.27;61.19;99757.29;211736;1293;141139;-64
2022/06/06 18:08:24;;;;;;;16.10;13.60;;;;;;;21.07;61.79;99748.23;211677;1293;140773;-65
2022/06/06 18:14:00;;;;;;;14.60;13.00;;;;;;;21.10;62.53;99742.27;211593;1293;142130;-65
2022/06/06 18:19:15;;;;;;;14.60;13.10;;;;;;;21.21;62.78;99735.98;210769;1293;140513;-64
2022/06/06 18:24:24;;;;;;;16.60;14.60;;;;;;;21.28;63.27;99732.88;210213;1293;141452;-64
2022/06/06 18:29:51;;;;;;;17.00;14.30;;;;;;;21.30;63.49;99736.67;209630;1296;139477;-65
2022/06/06 18:35:20;;;;;;;18.90;15.80;;;;;;;21.27;63.45;99732.99;209352;1296;140363;-64
2022/06/06 18:40:34;;;;;;;23.80;15.00;;;;;;;21.21;63.82;99723.92;209650;1296;141681;-65
2022/06/06 18:45:37;;;;;;;18.20;16.30;;;;;;;21.16;64.15;99718.83;209355;1294;231725;-63
2022/06/06 18:50:52;;;;;;;16.80;15.40;;;;;;;21.11;64.52;99725.92;209069;1296;139664;-65
2022/06/06 18:55:58;;;;;;;18.10;14.60;;;;;;;21.05;64.43;99724.19;209132;1296;139946;-65
2022/06/06 19:01:26;;;;;;;15.70;14.30;;;;;;;20.98;64.67;99721.71;209350;1296;141754;-63
2022/06/06 19:06:37;;;;;;;14.70;13.20;;;;;;;20.85;64.96;99727.73;209496;1293;140484;-66
2022/06/06 19:11:40;;;;;;;16.10;14.60;;;;;;;20.54;65.05;99725.53;209689;1294;139817;-64
2022/06/06 19:16:49;;;;;;;17.70;14.30;;;;;;;20.32;65.39;99720.85;209515;1294;142156;-64
2022/06/06 19:21:53;;;;;;;16.10;14.40;;;;;;;20.20;66.04;99721.06;209451;1293;140653;-64
2022/06/06 19:27:09;;;;;;;16.20;14.70;;;;;;;20.14;66.38;99717.77;209353;1293;141206;-63
2022/06/06 19:32:18;;;;;;;16.40;15.00;;;;;;;20.15;66.81;99723.97;209379;1293;141805;-65
2022/06/06 19:37:23;;;;;;;17.10;15.40;;;;;;;20.18;67.29;99720.66;209596;1293;140975;-65
2022/06/06 19:42:29;;;;;;;14.10;12.80;;;;;;;20.20;67.48;99720.73;209436;1293;248788;-65
2022/06/06 19:47:37;;;;;;;16.10;14.60;;;;;;;20.11;67.52;99724.54;209316;1293;142264;-64
2022/06/06 19:52:44;;;;;;;15.10;13.60;;;;;;;20.05;67.62;99732.33;211556;1296;141471;-64
2022/06/06 19:57:49;;;;;;;15.70;14.20;;;;;;;19.80;67.77;99730.78;211457;1295;141030;-66
2022/06/06 20:02:58;;;;;;;19.90;17.90;;;;;;;19.55;68.19;99733.14;211720;1294;151346;-66
2022/06/06 20:08:26;;;;;;;19.00;16.90;;;;;;;19.47;68.50;99730.48;211828;1293;140843;-66
2022/06/06 20:13:36;;;;;;;20.40;16.70;;;;;;;19.42;68.76;99727.95;209278;1293;141540;-65
2022/06/06 20:18:43;;;;;;;19.70;17.60;;;;;;;19.32;69.05;99725.59;209969;1293;141531;-65
2022/06/06 20:23:49;;;;;;;;;;;;;;;19.35;69.48;99723.73;209616;1293;141369;-64
2022/06/06 20:29:15;;;;;;;19.00;17.20;;;;;;;19.41;69.83;99722.60;209877;1293;127705;-65
2022/06/06 20:34:39;;;;;;;20.00;15.90;;;;;;;19.49;69.89;99715.98;209480;1293;141202;-63
2022/06/06 20:40:00;;;;;;;18.30;16.20;;;;;;;19.47;69.87;99708.36;208976;1293;820182;-63
2022/06/06 20:45:18;;;;;;;18.30;16.50;;;;;;;19.33;69.90;99703.58;209443;1293;139496;-64
2022/06/06 20:50:40;;;;;;;19.10;17.10;;;;;;;19.32;70.27;99700.35;209453;1293;141076;-65
2022/06/06 20:55:54;;;;;;;19.30;17.40;;;;;;;19.35;70.43;99699.73;209170;1293;140846;-64
2022/06/06 21:00:58;;;;;;;19.40;17.20;;;;;;;19.37;70.58;99702.50;209433;1293;140782;-65
2022/06/06 21:06:02;;;;;;;21.60;17.40;;;;;;;19.39;70.57;99702.48;209547;1293;141397;-67
2022/06/06 21:11:05;;;;;;;18.30;16.70;;;;;;;19.42;70.65;99704.65;209521;1293;141511;-66
2022/06/06 21:16:12;;;;;;;23.30;19.20;;;;;;;19.37;70.47;99700.61;209677;1293;140862;-66
2022/06/06 21:21:18;;;;;;;20.40;18.40;;;;;;;19.19;70.59;99702.41;209516;1293;140651;-65
2022/06/06 21:26:23;;;;;;;20.30;18.30;;;;;;;19.05;70.79;99699.02;209691;1296;141851;-65
2022/06/06 21:31:26;;;;;;;23.10;19.40;;;;;;;18.92;71.25;99697.25;210097;1293;140950;-64
2022/06/06 21:36:31;;;;;;;23.40;18.20;;;;;;;18.84;71.63;99704.06;212113;1293;140005;-65
2022/06/06 21:41:34;;;;;;;20.40;17.70;;;;;;;18.91;71.89;99709.70;212012;1292;140025;-65
2022/06/06 21:46:37;;;;;;;19.50;17.80;;;;;;;19.04;72.01;99710.00;211892;1293;140900;-65
2022/06/06 21:51:42;;;;;;;21.20;19.30;;;;;;;19.14;72.01;99707.48;211821;1294;141333;-66
2022/06/06 21:56:54;;;;;;;20.30;18.20;;;;;;;19.25;71.98;99713.25;211804;1295;142365;-66
2022/06/06 22:02:03;;;;;;;24.70;18.10;;;;;;;19.21;71.61;99721.92;211543;1293;141322;-65
2022/06/06 22:07:09;;;;;;;19.20;17.50;;;;;;;19.14;71.80;99720.09;211111;1292;140953;-66
2022/06/06 22:12:17;;;;;;;20.20;18.50;;;;;;;19.16;71.63;99709.41;210292;1295;141908;-65
2022/06/06 22:17:25;;;;;;;20.70;18.60;;;;;;;19.18;71.68;99709.55;210060;1293;142121;-65
2022/06/06 22:22:28;;;;;;;19.00;17.10;;;;;;;19.15;71.62;99711.70;209700;1296;140411;-65
2022/06/06 22:27:32;;;;;;;22.20;18.80;;;;;;;19.04;71.69;99711.30;209665;1293;139948;-65
2022/06/06 22:32:36;;;;;;;20.40;18.40;;;;;;;18.94;71.62;99714.90;209653;1293;141298;-65
2022/06/06 22:37:39;;;;;;;20.90;19.00;;;;;;;18.78;71.49;99722.66;209902;1293;140484;-64
2022/06/06 22:42:42;;;;;;;21.00;18.90;;;;;;;18.63;71.72;99727.06;209502;1293;141518;-65
2022/06/06 22:47:51;;;;;;;24.60;22.30;;;;;;;18.57;71.71;99731.16;209671;1293;141447;-65
2022/06/06 22:52:54;;;;;;;20.10;18.20;;;;;;;18.46;71.81;99732.06;209526;1293;140942;-65
2022/06/06 22:58:00;;;;;;;26.80;21.40;;;;;;;18.30;71.75;99731.21;209408;1294;141246;-63
2022/06/06 23:03:07;;;;;;;23.50;20.80;;;;;;;18.18;72.01;99735.27;209369;1296;142750;-64
2022/06/06 23:08:11;;;;;;;;;;;;;;;18.18;72.34;99741.58;209508;1293;142121;-65
2022/06/06 23:13:13;;;;;;;23.70;21.30;;;;;;;18.14;72.40;99739.90;210017;1293;126329;-64
2022/06/06 23:18:20;;;;;;;26.70;20.90;;;;;;;18.06;72.26;99739.38;209961;1292;140746;-65
2022/06/06 23:23:23;;;;;;;;;;;;;;;17.97;72.18;99735.75;209383;1293;140798;-63
2022/06/06 23:28:27;;;;;;;22.00;19.60;;;;;;;17.79;71.95;99729.25;210679;1293;127731;-62
2022/06/06 23:33:36;;;;;;;22.90;20.50;;;;;;;17.66;71.88;99733.62;210464;1294;141704;-64
2022/06/06 23:38:47;;;;;;;21.20;18.90;;;;;;;17.51;72.04;99725.29;211666;1296;140029;-63
2022/06/06 23:43:53;;;;;;;21.80;19.50;;;;;;;17.35;72.02;99718.34;211546;1295;140163;-64
2022/06/06 23:49:09;;;;;;;22.00;19.80;;;;;;;17.32;72.13;99709.36;211617;1295;140444;-64
2022/06/06 23:54:13;;;;;;;22.50;20.30;;;;;;;17.31;72.03;99706.79;211616;1296;141031;-63
2022/06/06 23:59:16;;;;;;;23.90;21.40;;;;;;;17.24;71.86;99703.38;210050;1295;140181;-64
